Time;durP1;ratioP1;P1;durP2;ratioP2;P2;SDS_P1;SDS_P2;PMS_P1;PMS_P2;Temp;Humidity;BMP_temperature;BMP_pressure;BME280_temperature;BME280_humidity;BME280_pressure;Samples;Min_cycle;Max_cycle;Signal;HPM_P1;HPM_P2
2024/02/22 00:01:24;;;;;;;4.93;2.80;;;;;;;;;;5074158;28;20876;-69
2024/02/22 00:03:51;;;;;;;3.20;2.57;;;;;;;;;;5074085;28;20448;-69
2024/02/22 00:06:18;;;;;;;5.60;2.33;;;;;;;;;;5073975;28;20881;-69
2024/02/22 00:08:45;;;;;;;2.20;2.00;;;;;;;;;;5073791;28;20866;-69
2024/02/22 00:11:13;;;;;;;5.43;2.17;;;;;;;;;;5073716;28;20539;-69
2024/02/22 00:13:41;;;;;;;3.90;2.10;;;;;;;;;;5073734;28;20448;-69
2024/02/22 00:16:08;;;;;;;3.27;1.90;;;;;;;;;;5073881;28;20449;-69
2024/02/22 00:18:37;;;;;;;3.60;1.83;;;;;;;;;;5073748;28;20451;-69
2024/02/22 00:21:04;;;;;;;8.33;2.00;;;;;;;;;;5073773;28;20807;-69
2024/02/22 00:23:31;;;;;;;2.93;1.93;;;;;;;;;;5073554;28;20538;-69
2024/02/22 00:25:57;;;;;;;4.33;2.33;;;;;;;;;;5073544;28;20448;-69
2024/02/22 00:28:24;;;;;;;2.43;1.83;;;;;;;;;;5073466;28;20454;-69
2024/02/22 00:30:51;;;;;;;3.63;2.70;;;;;;;;;;5073458;28;20570;-69
2024/02/22 00:33:18;;;;;;;2.70;1.90;;;;;;;;;;5073491;28;20447;-69
2024/02/22 00:35:46;;;;;;;2.40;2.00;;;;;;;;;;5073302;28;20534;-69
2024/02/22 00:38:13;;;;;;;3.97;2.00;;;;;;;;;;5073365;28;20483;-69
2024/02/22 00:40:41;;;;;;;4.67;2.30;;;;;;;;;;5073018;28;20887;-69
2024/02/22 00:43:08;;;;;;;1.93;1.70;;;;;;;;;;5073411;28;20452;-69
2024/02/22 00:45:35;;;;;;;3.57;1.70;;;;;;;;;;5073382;28;20903;-69
2024/02/22 00:48:01;;;;;;;4.30;2.00;;;;;;;;;;5073285;28;20538;-69
2024/02/22 00:50:28;;;;;;;3.20;1.80;;;;;;;;;;5073223;28;20528;-69
2024/02/22 00:52:57;;;;;;;3.80;2.87;;;;;;;;;;5073022;28;20854;-69
2024/02/22 00:55:23;;;;;;;2.47;1.60;;;;;;;;;;5073346;28;20501;-69
2024/02/22 00:57:51;;;;;;;3.40;2.20;;;;;;;;;;5073230;28;20449;-69
2024/02/22 01:00:18;;;;;;;2.40;2.20;;;;;;;;;;5073145;28;20447;-69
2024/02/22 01:02:44;;;;;;;2.90;1.90;;;;;;;;;;5073060;28;20542;-69
2024/02/22 01:05:11;;;;;;;9.30;2.70;;;;;;;;;;5073006;28;20443;-69
2024/02/22 01:07:38;;;;;;;3.00;2.20;;;;;;;;;;5072115;28;20879;-69
2024/02/22 01:10:08;;;;;;;5.33;1.70;;;;;;;;;;5073020;28;20522;-69
2024/02/22 01:12:35;;;;;;;5.13;2.33;;;;;;;;;;5073027;28;20451;-69
2024/02/22 01:15:02;;;;;;;3.80;2.20;;;;;;;;;;5072885;28;20496;-69
2024/02/22 01:17:29;;;;;;;2.27;1.73;;;;;;;;;;5072844;28;20439;-69
2024/02/22 01:19:56;;;;;;;2.20;2.00;;;;;;;;;;5072728;28;20902;-69
2024/02/22 01:22:23;;;;;;;2.23;1.67;;;;;;;;;;5073082;28;20530;-69
2024/02/22 01:24:49;;;;;;;2.20;1.70;;;;;;;;;;5072790;28;20985;-69
2024/02/22 01:27:18;;;;;;;2.17;1.97;;;;;;;;;;5072940;28;20953;-69
2024/02/22 01:29:45;;;;;;;1.93;1.80;;;;;;;;;;5072809;28;20558;-69
2024/02/22 01:32:12;;;;;;;1.87;1.30;;;;;;;;;;5072764;28;20450;-69
2024/02/22 01:34:40;;;;;;;2.43;2.03;;;;;;;;;;5072650;28;20534;-69
2024/02/22 01:37:07;;;;;;;3.33;1.87;;;;;;;;;;5072864;28;20479;-69
2024/02/22 01:39:35;;;;;;;5.10;1.90;;;;;;;;;;5072572;28;20478;-69
2024/02/22 01:42:02;;;;;;;1.97;1.87;;;;;;;;;;5072675;28;20451;-69
2024/02/22 01:44:30;;;;;;;3.53;2.30;;;;;;;;;;5072598;28;20542;-69
2024/02/22 01:46:57;;;;;;;2.53;2.07;;;;;;;;;;5072496;28;20535;-69
2024/02/22 01:49:24;;;;;;;2.53;1.67;;;;;;;;;;5072362;28;20643;-69
2024/02/22 01:51:52;;;;;;;5.10;2.10;;;;;;;;;;5072713;28;20542;-69
2024/02/22 01:54:19;;;;;;;2.53;1.90;;;;;;;;;;5072664;28;20443;-69
2024/02/22 01:56:46;;;;;;;4.27;1.87;;;;;;;;;;5072589;28;20444;-69
2024/02/22 01:59:13;;;;;;;3.20;2.07;;;;;;;;;;5072539;28;20439;-69
2024/02/22 02:01:42;;;;;;;3.07;1.80;;;;;;;;;;5072423;28;20534;-69
2024/02/22 02:04:12;;;;;;;2.47;1.90;;;;;;;;;;5072584;28;20472;-69
2024/02/22 02:06:40;;;;;;;1.77;1.67;;;;;;;;;;5072431;28;20930;-69
2024/02/22 02:09:08;;;;;;;4.47;2.30;;;;;;;;;;5072453;28;20450;-69
2024/02/22 02:11:34;;;;;;;3.57;2.23;;;;;;;;;;5072493;28;20451;-69
2024/02/22 02:14:01;;;;;;;3.10;2.43;;;;;;;;;;5072379;28;20450;-69
2024/02/22 02:16:28;;;;;;;2.47;1.53;;;;;;;;;;5072563;28;20443;-69
2024/02/22 02:18:56;;;;;;;4.00;2.13;;;;;;;;;;5073464;28;20538;-69
2024/02/22 02:21:27;;;;;;;4.27;2.00;;;;;;;;;;5076074;28;20465;-69
2024/02/22 02:24:02;;;;;;;2.10;1.80;;;;;;;;;;5076075;28;20447;-69
2024/02/22 02:26:30;;;;;;;5.20;2.30;;;;;;;;;;5075959;28;20447;-69
2024/02/22 02:28:57;;;;;;;6.10;1.90;;;;;;;;;;5075813;28;20542;-69
2024/02/22 02:31:24;;;;;;;4.80;1.73;;;;;;;;;;5075853;28;20483;-69
2024/02/22 02:33:51;;;;;;;3.53;1.70;;;;;;;;;;5075906;28;20896;-69
2024/02/22 02:36:18;;;;;;;2.90;1.80;;;;;;;;;;5075735;28;20444;-69
2024/02/22 02:38:45;;;;;;;3.73;1.60;;;;;;;;;;5075474;28;20471;-69
2024/02/22 02:41:12;;;;;;;2.80;1.60;;;;;;;;;;5075604;28;20880;-69
2024/02/22 02:43:40;;;;;;;2.23;1.60;;;;;;;;;;5075483;28;20534;-69
2024/02/22 02:46:07;;;;;;;2.57;1.67;;;;;;;;;;5075635;28;20536;-69
2024/02/22 02:48:34;;;;;;;3.83;1.87;;;;;;;;;;5075559;28;20867;-69
2024/02/22 02:51:00;;;;;;;1.77;1.67;;;;;;;;;;5075435;28;20490;-69
2024/02/22 02:53:28;;;;;;;3.40;2.40;;;;;;;;;;5075439;28;20444;-69
2024/02/22 02:55:54;;;;;;;5.27;1.80;;;;;;;;;;5075210;28;20483;-69
2024/02/22 02:58:21;;;;;;;2.10;1.60;;;;;;;;;;5075545;28;20890;-69
2024/02/22 03:00:50;;;;;;;5.67;1.60;;;;;;;;;;5075556;28;20444;-69
2024/02/22 03:03:17;;;;;;;4.17;2.03;;;;;;;;;;5075104;28;21019;-69
2024/02/22 03:05:44;;;;;;;1.77;1.50;;;;;;;;;;5075231;28;20523;-69
2024/02/22 03:08:10;;;;;;;3.00;1.70;;;;;;;;;;5075084;28;20538;-69
2024/02/22 03:10:37;;;;;;;2.10;1.27;;;;;;;;;;5075002;28;20562;-69
2024/02/22 03:13:08;;;;;;;4.03;1.50;;;;;;;;;;5075134;28;20492;-69
2024/02/22 03:15:35;;;;;;;1.37;1.27;;;;;;;;;;5075081;28;20455;-69
2024/02/22 03:18:04;;;;;;;1.90;1.40;;;;;;;;;;5074967;28;20440;-69
2024/02/22 03:20:31;;;;;;;1.93;1.37;;;;;;;;;;5074834;28;20534;-69
2024/02/22 03:22:58;;;;;;;1.40;1.03;;;;;;;;;;5074780;28;20535;-69
2024/02/22 03:25:27;;;;;;;1.00;0.90;;;;;;;;;;5074916;28;20470;-69
2024/02/22 03:27:58;;;;;;;2.00;0.90;;;;;;;;;;5074782;28;20479;-69
2024/02/22 03:30:25;;;;;;;1.20;1.03;;;;;;;;;;5073656;28;21065;-69
2024/02/22 03:32:52;;;;;;;1.10;1.00;;;;;;;;;;5074675;28;20562;-69
2024/02/22 03:35:22;;;;;;;1.87;0.97;;;;;;;;;;5074528;28;20455;-69
2024/02/22 03:37:49;;;;;;;2.53;0.97;;;;;;;;;;5074699;28;20451;-69
2024/02/22 03:40:16;;;;;;;1.23;0.90;;;;;;;;;;5074220;28;20479;-69
2024/02/22 03:42:43;;;;;;;1.03;0.93;;;;;;;;;;5074515;28;20534;-69
2024/02/22 03:45:10;;;;;;;1.73;1.33;;;;;;;;;;5074464;28;20535;-69
2024/02/22 03:47:38;;;;;;;2.90;1.63;;;;;;;;;;5074349;28;20444;-69
2024/02/22 03:50:05;;;;;;;1.10;1.00;;;;;;;;;;5074123;28;20486;-69
2024/02/22 03:52:33;;;;;;;2.83;1.07;;;;;;;;;;5074514;28;20527;-69
2024/02/22 03:55:01;;;;;;;1.57;1.40;;;;;;;;;;5074327;28;20493;-69
2024/02/22 03:57:27;;;;;;;2.30;1.13;;;;;;;;;;5074224;28;20445;-69
2024/02/22 03:59:54;;;;;;;1.97;0.90;;;;;;;;;;5074028;28;20666;-69
2024/02/22 04:02:21;;;;;;;2.17;1.00;;;;;;;;;;5074024;28;20872;-69
2024/02/22 04:04:53;;;;;;;1.50;1.13;;;;;;;;;;5073826;28;20439;-69
2024/02/22 04:07:22;;;;;;;1.10;1.00;;;;;;;;;;5073803;28;20927;-69
2024/02/22 04:09:51;;;;;;;0.80;0.80;;;;;;;;;;5073809;28;20840;-69
2024/02/22 04:12:17;;;;;;;2.37;1.10;;;;;;;;;;5073872;28;20446;-69
2024/02/22 04:14:45;;;;;;;1.30;0.80;;;;;;;;;;5073755;28;20601;-69
2024/02/22 04:17:12;;;;;;;1.27;1.00;;;;;;;;;;5073619;28;20831;-69
2024/02/22 04:19:39;;;;;;;5.40;1.13;;;;;;;;;;5073849;28;20530;-69
2024/02/22 04:22:06;;;;;;;0.90;0.90;;;;;;;;;;5073710;28;20883;-69
2024/02/22 04:24:32;;;;;;;1.27;1.00;;;;;;;;;;5073630;28;20522;-69
2024/02/22 04:27:00;;;;;;;0.90;0.80;;;;;;;;;;5073552;28;20475;-69
2024/02/22 04:29:27;;;;;;;0.97;0.90;;;;;;;;;;5073450;28;20811;-69
2024/02/22 04:31:53;;;;;;;1.13;1.03;;;;;;;;;;5073295;28;20570;-69
2024/02/22 04:34:20;;;;;;;1.70;1.30;;;;;;;;;;5073508;28;20444;-69
2024/02/22 04:36:47;;;;;;;2.03;1.00;;;;;;;;;;5073482;28;20492;-69
2024/02/22 04:39:15;;;;;;;1.00;0.87;;;;;;;;;;5073269;28;20475;-69
2024/02/22 04:41:42;;;;;;;1.10;1.07;;;;;;;;;;5073271;28;20935;-69
2024/02/22 04:44:10;;;;;;;6.17;1.67;;;;;;;;;;5073201;28;20530;-69
2024/02/22 04:46:37;;;;;;;1.40;1.00;;;;;;;;;;5073358;28;20539;-69
2024/02/22 04:49:04;;;;;;;1.20;1.10;;;;;;;;;;5073393;28;20443;-69
2024/02/22 04:51:32;;;;;;;1.40;1.00;;;;;;;;;;5073185;28;20566;-69
2024/02/22 04:53:59;;;;;;;1.73;0.90;;;;;;;;;;5073196;28;20454;-69
2024/02/22 04:56:28;;;;;;;1.43;1.13;;;;;;;;;;5073087;28;20454;-69
2024/02/22 04:58:55;;;;;;;1.07;0.97;;;;;;;;;;5072979;28;20448;-69
2024/02/22 05:01:23;;;;;;;1.73;0.80;;;;;;;;;;5073244;28;20443;-69
2024/02/22 05:03:50;;;;;;;2.60;1.37;;;;;;;;;;5073122;28;20448;-69
2024/02/22 05:06:17;;;;;;;1.27;1.00;;;;;;;;;;5073033;28;20601;-69
2024/02/22 05:08:44;;;;;;;1.30;1.20;;;;;;;;;;5072928;28;20521;-69
2024/02/22 05:11:12;;;;;;;1.13;1.03;;;;;;;;;;5072785;28;20479;-69
2024/02/22 05:13:39;;;;;;;1.60;1.30;;;;;;;;;;5073164;28;20950;-69
2024/02/22 05:16:06;;;;;;;1.57;1.10;;;;;;;;;;5073014;28;20485;-69
2024/02/22 05:18:34;;;;;;;1.37;0.93;;;;;;;;;;5072962;28;20450;-69
2024/02/22 05:21:01;;;;;;;1.27;1.17;;;;;;;;;;5072878;28;20546;-69
2024/02/22 05:23:30;;;;;;;1.43;1.10;;;;;;;;;;5072838;28;20803;-69
2024/02/22 05:25:57;;;;;;;1.10;1.00;;;;;;;;;;5072681;28;20470;-69
2024/02/22 05:28:24;;;;;;;0.90;0.90;;;;;;;;;;5073010;28;20525;-69
2024/02/22 05:30:51;;;;;;;1.00;0.90;;;;;;;;;;5072635;28;20988;-69
2024/02/22 05:33:18;;;;;;;0.90;0.80;;;;;;;;;;5072772;28;20517;-69
2024/02/22 05:35:46;;;;;;;1.53;1.07;;;;;;;;;;5072726;28;20538;-69
2024/02/22 05:38:13;;;;;;;2.43;1.00;;;;;;;;;;5072636;28;20569;-69
2024/02/22 05:40:42;;;;;;;1.20;1.07;;;;;;;;;;5072305;28;20976;-69
2024/02/22 05:43:09;;;;;;;2.43;1.10;;;;;;;;;;5072806;28;20448;-69
2024/02/22 05:45:41;;;;;;;1.63;1.10;;;;;;;;;;5072529;28;20452;-70
2024/02/22 05:48:08;;;;;;;1.43;1.10;;;;;;;;;;5072698;28;20455;-70
2024/02/22 05:50:36;;;;;;;3.20;1.43;;;;;;;;;;5072408;28;20443;-70
2024/02/22 05:53:04;;;;;;;1.63;1.53;;;;;;;;;;5072482;28;20451;-70
2024/02/22 05:55:31;;;;;;;1.30;1.10;;;;;;;;;;5076353;28;20534;-70
2024/02/22 05:57:58;;;;;;;1.10;1.00;;;;;;;;;;5076523;28;20446;-70
2024/02/22 06:00:25;;;;;;;2.60;1.30;;;;;;;;;;5076418;28;20443;-70
2024/02/22 06:02:52;;;;;;;1.30;1.10;;;;;;;;;;5076310;28;20551;-69
2024/02/22 06:05:19;;;;;;;1.37;1.27;;;;;;;;;;5076185;28;20470;-70
2024/02/22 06:07:46;;;;;;;1.83;1.10;;;;;;;;;;5076377;28;20577;-70
2024/02/22 06:10:14;;;;;;;1.10;1.03;;;;;;;;;;5076219;28;20444;-70
2024/02/22 06:12:43;;;;;;;1.00;0.90;;;;;;;;;;5076004;28;21076;-70
2024/02/22 06:15:10;;;;;;;1.53;1.10;;;;;;;;;;5076107;28;20448;-70
2024/02/22 06:17:37;;;;;;;0.90;0.90;;;;;;;;;;5076061;28;20482;-70
2024/02/22 06:20:05;;;;;;;2.60;1.30;;;;;;;;;;5075808;28;20554;-70
2024/02/22 06:22:32;;;;;;;1.47;1.37;;;;;;;;;;5076167;28;21111;-71
2024/02/22 06:24:58;;;;;;;1.63;1.13;;;;;;;;;;5076096;28;20534;-70
2024/02/22 06:27:27;;;;;;;1.10;1.00;;;;;;;;;;5075927;28;20451;-69
2024/02/22 06:29:53;;;;;;;1.27;1.07;;;;;;;;;;5075864;28;20471;-70
2024/02/22 06:32:20;;;;;;;1.30;1.20;;;;;;;;;;5075638;28;20514;-70
2024/02/22 06:34:47;;;;;;;1.40;1.30;;;;;;;;;;5075563;28;20478;-70
2024/02/22 06:37:15;;;;;;;1.43;1.33;;;;;;;;;;5075730;28;20927;-70
2024/02/22 06:39:42;;;;;;;1.30;1.20;;;;;;;;;;5075325;28;20474;-70
2024/02/22 06:42:09;;;;;;;1.33;1.23;;;;;;;;;;5075545;28;20445;-70
2024/02/22 06:44:37;;;;;;;1.10;1.00;;;;;;;;;;5075454;28;20537;-70
2024/02/22 06:47:05;;;;;;;1.20;1.10;;;;;;;;;;5075400;28;20447;-70
2024/02/22 06:49:32;;;;;;;1.73;1.30;;;;;;;;;;5075412;28;20493;-70
2024/02/22 06:51:59;;;;;;;1.70;1.60;;;;;;;;;;5075447;28;20577;-70
2024/02/22 06:54:26;;;;;;;1.37;0.90;;;;;;;;;;5075268;28;20451;-70
2024/02/22 06:56:53;;;;;;;1.30;1.20;;;;;;;;;;5075715;28;20577;-70
2024/02/22 06:59:21;;;;;;;1.27;1.17;;;;;;;;;;5075278;28;20440;-70
2024/02/22 07:01:49;;;;;;;1.50;1.40;;;;;;;;;;5075160;28;20451;-69
2024/02/22 07:04:16;;;;;;;1.33;1.23;;;;;;;;;;5075192;28;20538;-69
2024/02/22 07:06:43;;;;;;;1.20;1.10;;;;;;;;;;5073944;28;20784;-70
2024/02/22 07:09:11;;;;;;;1.27;1.17;;;;;;;;;;5075199;28;20435;-68
2024/02/22 07:11:38;;;;;;;1.30;1.20;;;;;;;;;;5074941;28;20467;-70
2024/02/22 07:14:05;;;;;;;1.20;1.10;;;;;;;;;;5074896;28;20530;-68
2024/02/22 07:16:32;;;;;;;1.67;1.57;;;;;;;;;;5075085;28;20447;-68
2024/02/22 07:19:00;;;;;;;1.23;1.10;;;;;;;;;;5074950;28;20483;-68
2024/02/22 07:21:32;;;;;;;1.73;1.13;;;;;;;;;;5074905;28;20538;-68
2024/02/22 07:23:59;;;;;;;1.20;1.10;;;;;;;;;;5074805;28;20448;-68
2024/02/22 07:26:26;;;;;;;1.30;1.20;;;;;;;;;;5074697;28;20534;-68
2024/02/22 07:28:53;;;;;;;1.10;1.00;;;;;;;;;;5074505;28;20534;-68
2024/02/22 07:31:20;;;;;;;1.70;1.30;;;;;;;;;;5074590;28;20877;-68
2024/02/22 07:33:47;;;;;;;1.43;1.33;;;;;;;;;;5074626;28;20447;-68
2024/02/22 07:36:15;;;;;;;1.20;1.10;;;;;;;;;;5074546;28;20551;-68
2024/02/22 07:38:43;;;;;;;1.30;1.20;;;;;;;;;;5074205;28;20538;-67
2024/02/22 07:41:15;;;;;;;2.07;1.43;;;;;;;;;;5074169;28;20455;-68
2024/02/22 07:43:42;;;;;;;2.70;1.40;;;;;;;;;;5074465;28;20544;-68
2024/02/22 07:46:11;;;;;;;1.53;1.43;;;;;;;;;;5074387;28;20799;-68
2024/02/22 07:48:37;;;;;;;1.60;1.40;;;;;;;;;;5074193;28;20452;-69
2024/02/22 07:51:04;;;;;;;2.50;1.57;;;;;;;;;;5074157;28;20538;-68
2024/02/22 07:53:34;;;;;;;5.70;1.77;;;;;;;;;;5074138;28;20451;-69
2024/02/22 07:56:02;;;;;;;1.90;1.80;;;;;;;;;;5073986;28;20448;-68
2024/02/22 07:58:29;;;;;;;2.80;2.40;;;;;;;;;;5074209;28;20538;-69
2024/02/22 08:00:58;;;;;;;1.97;1.87;;;;;;;;;;5074159;28;20447;-68
2024/02/22 08:03:25;;;;;;;6.80;6.10;;;;;;;;;;5073689;28;20494;-69
2024/02/22 08:05:53;;;;;;;2.07;1.97;;;;;;;;;;5073633;28;20530;-65
2024/02/22 08:08:21;;;;;;;2.10;1.97;;;;;;;;;;5073685;28;20447;-67
2024/02/22 08:10:49;;;;;;;2.33;2.23;;;;;;;;;;5073766;28;20814;-67
2024/02/22 08:13:17;;;;;;;2.63;2.43;;;;;;;;;;5073614;28;20515;-66
2024/02/22 08:15:44;;;;;;;2.00;1.90;;;;;;;;;;5073650;28;20448;-67
2024/02/22 08:18:11;;;;;;;2.17;1.97;;;;;;;;;;5073246;28;20538;-66
2024/02/22 08:20:38;;;;;;;1.73;1.57;;;;;;;;;;5073237;28;20860;-66
2024/02/22 08:23:08;;;;;;;1.60;1.50;;;;;;;;;;5073381;28;20466;-66
2024/02/22 08:25:35;;;;;;;1.87;1.77;;;;;;;;;;5073417;28;20454;-67
2024/02/22 08:28:03;;;;;;;1.70;1.60;;;;;;;;;;5073774;28;20534;-69
2024/02/22 08:30:30;;;;;;;1.20;1.10;;;;;;;;;;5073440;28;20450;-72
2024/02/22 08:32:57;;;;;;;1.87;1.77;;;;;;;;;;5073151;28;20487;-72
2024/02/22 08:35:24;;;;;;;1.60;1.50;;;;;;;;;;5073225;28;20510;-69
2024/02/22 08:37:51;;;;;;;1.80;1.70;;;;;;;;;;5073472;28;20475;-69
2024/02/22 08:40:19;;;;;;;7.13;2.20;;;;;;;;;;5073014;28;20550;-67
2024/02/22 08:42:46;;;;;;;1.50;1.40;;;;;;;;;;5073192;28;20447;-68
2024/02/22 08:45:14;;;;;;;1.87;1.73;;;;;;;;;;5073120;28;20490;-69
2024/02/22 08:47:41;;;;;;;2.50;1.90;;;;;;;;;;5073046;28;21022;-70
2024/02/22 08:50:09;;;;;;;2.10;1.90;;;;;;;;;;5072965;28;20459;-69
2024/02/22 08:52:37;;;;;;;2.20;2.00;;;;;;;;;;5073150;28;20569;-70
2024/02/22 08:55:04;;;;;;;2.93;2.43;;;;;;;;;;5072992;28;20534;-67
2024/02/22 08:57:31;;;;;;;1.80;1.70;;;;;;;;;;5072991;28;20501;-64
2024/02/22 08:59:57;;;;;;;3.60;2.37;;;;;;;;;;5072933;28;20447;-64
2024/02/22 09:02:26;;;;;;;2.23;2.00;;;;;;;;;;5072773;28;20546;-66
2024/02/22 09:04:53;;;;;;;3.80;2.50;;;;;;;;;;5072674;28;20538;-68
2024/02/22 09:07:19;;;;;;;4.23;3.00;;;;;;;;;;5073112;28;20530;-66
2024/02/22 09:09:47;;;;;;;4.10;3.20;;;;;;;;;;5072743;28;20595;-71
2024/02/22 09:12:15;;;;;;;3.03;2.60;;;;;;;;;;5072666;28;20475;-67
2024/02/22 09:14:42;;;;;;;7.77;3.43;;;;;;;;;;5072846;28;20948;-67
2024/02/22 09:17:09;;;;;;;2.40;2.20;;;;;;;;;;5072622;28;20530;-68
2024/02/22 09:19:37;;;;;;;3.60;2.40;;;;;;;;;;5072853;28;20448;-74
2024/02/22 09:22:04;;;;;;;2.70;2.47;;;;;;;;;;5072917;28;20475;-64
2024/02/22 09:24:32;;;;;;;2.17;2.03;;;;;;;;;;5072801;28;20799;-63
2024/02/22 09:27:00;;;;;;;2.43;2.17;;;;;;;;;;5072579;28;20530;-73
2024/02/22 09:29:28;;;;;;;2.20;2.07;;;;;;;;;;5074700;28;20450;-65
2024/02/22 09:31:55;;;;;;;2.10;1.80;;;;;;;;;;5076885;28;20546;-69
2024/02/22 09:34:22;;;;;;;1.87;1.77;;;;;;;;;;5076831;28;20923;-67
2024/02/22 09:36:51;;;;;;;3.20;2.30;;;;;;;;;;5076776;28;20446;-69
2024/02/22 09:39:20;;;;;;;3.57;2.10;;;;;;;;;;5076591;28;21041;-68
2024/02/22 09:41:48;;;;;;;2.07;1.97;;;;;;;;;;5076652;28;20447;-68
2024/02/22 09:44:15;;;;;;;2.97;2.10;;;;;;;;;;5076402;28;20802;-64
2024/02/22 09:46:42;;;;;;;2.00;1.80;;;;;;;;;;5076713;28;20447;-68
2024/02/22 09:49:11;;;;;;;1.90;1.80;;;;;;;;;;5076433;28;21009;-66
2024/02/22 09:51:38;;;;;;;2.27;1.90;;;;;;;;;;5076234;28;20443;-68
2024/02/22 09:54:06;;;;;;;1.87;1.77;;;;;;;;;;5076330;28;20447;-65
2024/02/22 09:56:34;;;;;;;1.73;1.60;;;;;;;;;;5076268;28;20478;-65
2024/02/22 09:59:01;;;;;;;1.83;1.40;;;;;;;;;;5076017;28;20933;-65
2024/02/22 10:01:29;;;;;;;1.90;1.80;;;;;;;;;;5076298;28;20529;-65
2024/02/22 10:03:56;;;;;;;1.40;1.30;;;;;;;;;;5076263;28;20447;-65
2024/02/22 10:06:24;;;;;;;1.30;1.20;;;;;;;;;;5075778;28;20873;-64
2024/02/22 10:08:51;;;;;;;1.40;1.30;;;;;;;;;;5075829;28;20443;-64
2024/02/22 10:11:20;;;;;;;2.07;1.70;;;;;;;;;;5075853;28;20815;-65
2024/02/22 10:13:47;;;;;;;4.90;1.43;;;;;;;;;;5076108;28;20490;-64
2024/02/22 10:16:14;;;;;;;2.07;1.97;;;;;;;;;;5076013;28;21017;-65
2024/02/22 10:18:41;;;;;;;1.40;1.30;;;;;;;;;;5076056;28;20626;-65
2024/02/22 10:21:16;;;;;;;1.60;1.40;;;;;;;;;;5076024;28;20481;-65
2024/02/22 10:23:43;;;;;;;1.30;1.20;;;;;;;;;;5075843;28;20442;-65
2024/02/22 10:26:10;;;;;;;1.33;1.23;;;;;;;;;;5076083;28;20505;-64
2024/02/22 10:28:39;;;;;;;1.57;1.47;;;;;;;;;;5075881;28;20534;-64
2024/02/22 10:31:06;;;;;;;2.53;1.63;;;;;;;;;;5075835;28;20443;-64
2024/02/22 10:33:34;;;;;;;1.73;1.63;;;;;;;;;;5075602;28;20487;-64
2024/02/22 10:36:01;;;;;;;1.50;1.33;;;;;;;;;;5075579;28;20853;-64
2024/02/22 10:38:29;;;;;;;1.40;1.30;;;;;;;;;;5075584;28;20540;-64
2024/02/22 10:40:56;;;;;;;1.83;1.40;;;;;;;;;;5075402;28;20447;-64
2024/02/22 10:43:24;;;;;;;1.20;1.10;;;;;;;;;;5075157;28;20997;-64
2024/02/22 10:45:53;;;;;;;1.33;1.23;;;;;;;;;;5075338;28;20822;-64
2024/02/22 10:48:22;;;;;;;1.53;1.40;;;;;;;;;;5074677;28;20489;-64
2024/02/22 10:50:49;;;;;;;1.40;1.30;;;;;;;;;;5075309;28;20474;-64
2024/02/22 10:53:17;;;;;;;1.50;1.13;;;;;;;;;;5075352;28;20925;-64
2024/02/22 10:55:49;;;;;;;1.87;1.60;;;;;;;;;;5075405;28;20448;-64
2024/02/22 10:58:17;;;;;;;1.50;1.40;;;;;;;;;;5075240;28;20622;-64
2024/02/22 11:00:44;;;;;;;1.50;1.40;;;;;;;;;;5075676;28;20477;-64
2024/02/22 11:03:13;;;;;;;1.20;1.10;;;;;;;;;;5075178;28;20450;-64
2024/02/22 11:05:39;;;;;;;1.40;1.30;;;;;;;;;;5075005;28;20455;-64
2024/02/22 11:08:07;;;;;;;1.57;1.47;;;;;;;;;;5075251;28;20802;-64
2024/02/22 11:10:34;;;;;;;1.33;1.23;;;;;;;;;;5075104;28;20546;-65
2024/02/22 11:13:04;;;;;;;1.73;1.40;;;;;;;;;;5074903;28;20884;-65
2024/02/22 11:15:34;;;;;;;1.33;1.23;;;;;;;;;;5074912;28;20456;-65
2024/02/22 11:18:02;;;;;;;1.97;1.40;;;;;;;;;;5074995;28;20440;-65
2024/02/22 11:20:34;;;;;;;1.60;1.50;;;;;;;;;;5074808;28;20834;-65
2024/02/22 11:23:11;;;;;;;1.20;1.10;;;;;;;;;;5074822;28;20443;-67
2024/02/22 11:25:38;;;;;;;1.90;1.70;;;;;;;;;;5074779;28;20459;-67
2024/02/22 11:28:05;;;;;;;1.73;1.53;;;;;;;;;;5074561;28;20538;-62
2024/02/22 11:30:32;;;;;;;1.50;1.40;;;;;;;;;;5074559;28;20443;-69
2024/02/22 11:33:00;;;;;;;1.43;1.33;;;;;;;;;;5074414;28;20475;-69
2024/02/22 11:35:28;;;;;;;1.80;1.70;;;;;;;;;;5074564;28;20538;-66
2024/02/22 11:37:59;;;;;;;1.37;1.27;;;;;;;;;;5074612;28;20554;-65
2024/02/22 11:40:30;;;;;;;1.47;1.37;;;;;;;;;;5074214;28;20471;-70
2024/02/22 11:42:57;;;;;;;1.63;1.53;;;;;;;;;;5074313;28;20812;-65
2024/02/22 11:45:24;;;;;;;1.33;1.23;;;;;;;;;;5074497;28;20436;-65
2024/02/22 11:47:51;;;;;;;1.70;1.37;;;;;;;;;;5074280;28;20479;-64
2024/02/22 11:50:19;;;;;;;1.40;1.30;;;;;;;;;;5073885;28;20440;-66
2024/02/22 11:52:46;;;;;;;1.50;1.30;;;;;;;;;;5073272;28;20482;-74
2024/02/22 11:55:15;;;;;;;1.40;1.30;;;;;;;;;;5073995;28;20626;-68
2024/02/22 11:57:42;;;;;;;3.30;1.40;;;;;;;;;;5073885;28;20504;-77
2024/02/22 12:00:10;;;;;;;1.20;1.10;;;;;;;;;;5074702;28;20890;-79
2024/02/22 12:02:37;;;;;;;1.50;1.40;;;;;;;;;;5075153;28;20447;-72
2024/02/22 12:05:05;;;;;;;1.40;1.30;;;;;;;;;;5073848;28;20448;-69
2024/02/22 12:07:32;;;;;;;1.63;1.53;;;;;;;;;;5073768;28;20526;-69
2024/02/22 12:09:59;;;;;;;2.07;1.30;;;;;;;;;;5073638;28;20517;-72
2024/02/22 12:12:28;;;;;;;1.23;1.13;;;;;;;;;;5073874;28;20531;-71
2024/02/22 12:14:58;;;;;;;1.60;1.50;;;;;;;;;;5073818;28;20518;-67
2024/02/22 12:17:26;;;;;;;1.57;1.47;;;;;;;;;;5073542;28;20452;-64
2024/02/22 12:19:54;;;;;;;1.33;1.23;;;;;;;;;;5073640;28;20862;-68
2024/02/22 12:22:21;;;;;;;1.10;1.07;;;;;;;;;;5073294;28;20452;-71
2024/02/22 12:24:49;;;;;;;1.50;1.20;;;;;;;;;;5073246;28;20475;-69
2024/02/22 12:27:16;;;;;;;1.30;1.20;;;;;;;;;;5073476;28;20539;-68
2024/02/22 12:29:44;;;;;;;1.27;1.17;;;;;;;;;;5073308;28;20443;-67
2024/02/22 12:32:13;;;;;;;1.60;1.50;;;;;;;;;;5073251;28;20448;-68
2024/02/22 12:34:40;;;;;;;1.93;1.83;;;;;;;;;;5073079;28;20479;-67
2024/02/22 12:37:07;;;;;;;1.97;1.87;;;;;;;;;;5073186;28;21006;-68
2024/02/22 12:39:34;;;;;;;5.43;1.80;;;;;;;;;;5073091;28;20467;-67
2024/02/22 12:42:01;;;;;;;1.67;1.57;;;;;;;;;;5072906;28;20590;-67
2024/02/22 12:44:28;;;;;;;1.57;1.47;;;;;;;;;;5073130;28;20539;-64
2024/02/22 12:46:58;;;;;;;4.53;4.13;;;;;;;;;;5072960;28;20458;-64
2024/02/22 12:49:25;;;;;;;3.90;3.60;;;;;;;;;;5072938;28;20448;-70
2024/02/22 12:51:52;;;;;;;3.73;3.53;;;;;;;;;;5072666;28;20575;-67
2024/02/22 12:54:19;;;;;;;1.73;1.63;;;;;;;;;;5072802;28;20561;-69
2024/02/22 12:56:46;;;;;;;1.87;1.70;;;;;;;;;;5072909;28;20527;-66
2024/02/22 12:59:13;;;;;;;2.63;1.60;;;;;;;;;;5073003;28;20465;-66
2024/02/22 13:01:40;;;;;;;3.63;2.07;;;;;;;;;;5072788;28;20535;-71
2024/02/22 13:04:09;;;;;;;4.90;1.80;;;;;;;;;;5072614;28;20539;-67
2024/02/22 13:06:37;;;;;;;1.57;1.47;;;;;;;;;;5072979;28;20534;-66
2024/02/22 13:09:04;;;;;;;3.87;1.70;;;;;;;;;;5073107;28;20446;-63
2024/02/22 13:11:31;;;;;;;1.70;1.60;;;;;;;;;;5072895;28;20850;-73
2024/02/22 13:13:58;;;;;;;2.20;2.00;;;;;;;;;;5072706;28;20889;-68
2024/02/22 13:16:27;;;;;;;1.67;1.57;;;;;;;;;;5072870;28;20447;-66
2024/02/22 13:18:54;;;;;;;1.90;1.80;;;;;;;;;;5072636;28;20447;-68
2024/02/22 13:21:22;;;;;;;1.50;1.40;;;;;;;;;;5072811;28;20448;-66
2024/02/22 13:23:49;;;;;;;1.57;1.47;;;;;;;;;;5072648;28;20475;-71
2024/02/22 13:26:16;;;;;;;1.93;1.83;;;;;;;;;;5072644;28;20471;-73
2024/02/22 13:28:42;;;;;;;1.50;1.33;;;;;;;;;;5072339;28;20541;-69
2024/02/22 13:31:09;;;;;;;1.37;1.27;;;;;;;;;;5072494;28;20447;-77
2024/02/22 13:33:39;;;;;;;2.07;1.30;;;;;;;;;;5072665;28;20503;-69
2024/02/22 13:36:06;;;;;;;1.27;1.17;;;;;;;;;;5072529;28;20440;-67
2024/02/22 13:38:34;;;;;;;1.33;1.20;;;;;;;;;;5072327;28;20538;-67
2024/02/22 13:41:03;;;;;;;1.70;1.30;;;;;;;;;;5072415;28;20447;-69
2024/02/22 13:43:30;;;;;;;1.50;1.40;;;;;;;;;;5072449;28;20564;-68
2024/02/22 13:45:56;;;;;;;2.50;1.43;;;;;;;;;;5072311;28;20470;-69
2024/02/22 13:48:23;;;;;;;1.40;1.30;;;;;;;;;;5072319;28;20443;-67
2024/02/22 13:50:54;;;;;;;1.33;1.23;;;;;;;;;;5072626;28;20554;-67
2024/02/22 13:53:21;;;;;;;1.40;1.30;;;;;;;;;;5072363;28;20574;-67
2024/02/22 13:55:49;;;;;;;1.10;1.00;;;;;;;;;;5072117;28;20465;-70
2024/02/22 13:58:17;;;;;;;1.97;1.20;;;;;;;;;;5071822;28;20451;-70
2024/02/22 14:00:45;;;;;;;1.23;1.13;;;;;;;;;;5072375;28;20797;-70
2024/02/22 14:03:12;;;;;;;1.87;1.10;;;;;;;;;;5072432;28;20493;-70
2024/02/22 14:05:40;;;;;;;0.87;0.87;;;;;;;;;;5072372;28;20527;-70
2024/02/22 14:08:09;;;;;;;1.30;1.17;;;;;;;;;;5072579;28;20444;-70
2024/02/22 14:10:36;;;;;;;1.37;1.27;;;;;;;;;;5072122;28;20957;-71
2024/02/22 14:13:05;;;;;;;1.07;1.00;;;;;;;;;;5072046;28;20443;-70
2024/02/22 14:15:32;;;;;;;1.00;0.90;;;;;;;;;;5073553;28;20985;-70
2024/02/22 14:17:59;;;;;;;1.83;1.33;;;;;;;;;;5073911;28;20447;-70
2024/02/22 14:20:25;;;;;;;1.67;1.00;;;;;;;;;;5073677;28;20976;-69
2024/02/22 14:22:52;;;;;;;1.30;1.10;;;;;;;;;;5073835;28;20541;-71
2024/02/22 14:25:19;;;;;;;1.30;1.20;;;;;;;;;;5073700;28;20451;-71
2024/02/22 14:27:47;;;;;;;1.40;1.30;;;;;;;;;;5073571;28;21008;-71
2024/02/22 14:30:16;;;;;;;1.50;1.30;;;;;;;;;;5073468;28;20486;-71
2024/02/22 14:32:42;;;;;;;1.27;1.17;;;;;;;;;;5075635;28;20444;-72
2024/02/22 14:35:10;;;;;;;1.50;1.40;;;;;;;;;;5075685;28;20550;-71
2024/02/22 14:37:36;;;;;;;1.40;1.30;;;;;;;;;;5075492;28;20444;-71
2024/02/22 14:40:03;;;;;;;1.13;1.03;;;;;;;;;;5075185;28;20554;-71
2024/02/22 14:42:30;;;;;;;1.30;1.20;;;;;;;;;;5075503;28;20999;-71
2024/02/22 14:44:58;;;;;;;1.10;1.00;;;;;;;;;;5075461;28;20448;-71